Hovedside
METAR-TAF:

METAR-TAF

Lufthavner :

Kelso, Washington, USA

breddegrad: 46-07N, lengdegrad: 122-54W, høyde over havet: 5 m

Gjeldene værobservasjon

Denne rapporten ble laget for 14 minutter siden, klokken 03:56 UTC
Flau vind
Temperatur 6°C
Luftfuktighet 100%
Trykk 1022 hPa
Sikt: 2.0 km
Spredte skyer i en høyde av 3400 ft
Brutte skyer i en høyde av 4400 ft
dis

METAR: KKLS 200356Z AUTO 00000KT 1 1/4SM BR SCT034 BKN044 06/06 A3018 RMK AO2 SLP224 T00610061

Tid: 20:10 (04:10 UTC)


TAF: fraværende

Værobservasjoner og værvarsel for over 4000 flyplasser (METAR- og TAF-rapporter).

Tilgjengelige stasjoner er representert av de røde og gule prikkene på kartet.

Hold musepekeren over prikken for å se navnet på stasjonen.

Klikk så for å se værobservasjoner og -varsler.

For å forandre kartet kan du klikke på den grønne knappen med svart kryss for å zoome inn, på den grønne knappen med strek for å zoome ut, eller på de grønne pilene for å se tilstøtende kart.


METAR-TAF: